Time;durP1;ratioP1;P1;durP2;ratioP2;P2;SDS_P1;SDS_P2;PMS_P1;PMS_P2;Temp;Humidity;BMP_temperature;BMP_pressure;BME280_temperature;BME280_humidity;BME280_pressure;Samples;Min_cycle;Max_cycle;Signal;HPM_P1;HPM_P2
2023/09/24 00:01:59;;;;;;;1.60;1.05;;;;;;;19.26;54.48;102183.34;5112251;28;20024;-81
2023/09/24 00:04:24;;;;;;;2.00;1.80;;;;;;;19.25;54.04;102187.03;5122324;28;20329;-81
2023/09/24 00:06:50;;;;;;;1.38;1.15;;;;;;;19.25;54.20;102191.56;5113353;28;20031;-82
2023/09/24 00:09:15;;;;;;;1.23;1.10;;;;;;;19.38;54.08;102208.34;5103840;28;20059;-81
2023/09/24 00:11:41;;;;;;;1.00;0.90;;;;;;;19.37;54.38;102218.28;5119204;28;20034;-81
2023/09/24 00:14:06;;;;;;;1.70;1.10;;;;;;;19.09;54.07;102162.44;5108973;28;20118;-81
2023/09/24 00:16:31;;;;;;;1.83;1.25;;;;;;;19.28;54.20;102204.75;5098777;28;20028;-81
2023/09/24 00:18:57;;;;;;;2.58;1.00;;;;;;;19.33;54.04;102216.00;5109182;28;20032;-81
2023/09/24 00:21:22;;;;;;;1.23;1.13;;;;;;;19.18;53.99;102205.59;5105959;28;20020;-81
2023/09/24 00:23:47;;;;;;;1.20;1.10;;;;;;;19.32;54.23;102233.16;5107053;28;20801;-80
2023/09/24 00:26:13;;;;;;;2.00;1.27;;;;;;;19.09;54.28;102194.81;5110133;28;20024;-80
2023/09/24 00:28:38;;;;;;;1.20;1.05;;;;;;;19.26;54.36;102220.25;5113232;28;20057;-82
2023/09/24 00:31:03;;;;;;;1.33;1.10;;;;;;;19.08;53.89;102193.09;5107786;28;20028;-82
2023/09/24 00:33:29;;;;;;;1.50;1.00;;;;;;;19.27;54.23;102227.31;5108372;28;20063;-81
2023/09/24 00:35:58;;;;;;;1.10;0.98;;;;;;;19.21;54.36;102223.34;5109399;28;20477;-81
2023/09/24 00:38:23;;;;;;;1.33;1.15;;;;;;;19.11;53.97;102217.91;5106113;28;20027;-82
2023/09/24 00:40:48;;;;;;;1.17;1.08;;;;;;;18.83;54.33;102162.13;5111613;28;20031;-81
2023/09/24 00:43:31;;;;;;;2.50;1.17;;;;;;;19.16;54.15;102225.63;5110080;28;20031;-80
2023/09/24 00:45:58;;;;;;;1.15;1.05;;;;;;;19.06;53.91;102206.69;5120341;28;20023;-81
2023/09/24 00:48:27;;;;;;;0.98;0.93;;;;;;;18.80;53.93;102167.78;5110791;28;20083;-82
2023/09/24 00:50:56;;;;;;;1.85;1.30;;;;;;;19.00;54.11;102209.13;5108797;28;20027;-81
2023/09/24 00:53:22;;;;;;;0.95;0.93;;;;;;;19.24;54.16;102241.94;5108922;28;20035;-82
2023/09/24 00:55:48;;;;;;;1.55;1.00;;;;;;;19.26;54.01;102258.84;5104360;28;20016;-78
2023/09/24 00:58:13;;;;;;;1.58;1.17;;;;;;;19.26;53.75;102244.50;5107945;28;20128;-81
2023/09/24 01:00:39;;;;;;;1.70;1.30;;;;;;;19.09;53.82;102219.06;5110325;28;20552;-81
2023/09/24 01:03:06;;;;;;;1.30;1.05;;;;;;;19.02;53.77;102209.81;5111329;28;20070;-82
2023/09/24 01:05:31;;;;;;;1.20;1.08;;;;;;;18.99;53.93;102213.66;5121699;28;20088;-81
2023/09/24 01:07:57;;;;;;;1.45;1.15;;;;;;;19.17;53.85;102247.03;5116559;28;20680;-81
2023/09/24 01:10:23;;;;;;;0.90;0.90;;;;;;;19.23;53.79;102253.72;5117196;28;20055;-82
2023/09/24 01:12:58;;;;;;;3.05;1.25;;;;;;;18.96;54.01;102205.84;5124075;28;20043;-81
2023/09/24 01:15:25;;;;;;;1.83;1.20;;;;;;;19.00;54.02;102212.66;5109142;28;20020;-82
2023/09/24 01:17:52;;;;;;;1.77;1.00;;;;;;;19.21;53.73;102243.06;5114354;28;20024;-81
2023/09/24 01:20:21;;;;;;;1.33;1.05;;;;;;;18.98;53.94;102210.06;5113320;28;20024;-81
2023/09/24 01:22:46;;;;;;;1.60;1.10;;;;;;;19.01;53.68;102218.91;5101661;28;20038;-81
2023/09/24 01:25:11;;;;;;;1.15;1.05;;;;;;;19.20;53.80;102248.63;5115171;28;20024;-82
2023/09/24 01:27:37;;;;;;;2.10;1.10;;;;;;;19.19;53.67;102244.19;5114936;28;20049;-82
2023/09/24 01:30:05;;;;;;;2.17;1.00;;;;;;;18.98;53.81;102220.00;5119923;28;20051;-82
2023/09/24 01:32:31;;;;;;;1.73;1.40;;;;;;;19.10;53.68;102243.19;5125190;28;20053;-82
2023/09/24 01:34:57;;;;;;;1.73;1.42;;;;;;;18.90;53.66;102200.97;5097292;28;20048;-82
2023/09/24 01:37:22;;;;;;;1.40;1.15;;;;;;;18.94;53.97;102216.72;5122802;28;20115;-82
2023/09/24 01:39:49;;;;;;;1.40;1.17;;;;;;;19.15;53.65;102243.59;5093405;28;20030;-81
2023/09/24 01:42:15;;;;;;;1.83;1.38;;;;;;;18.95;53.95;102220.31;5118448;28;20030;-81
2023/09/24 01:44:41;;;;;;;1.00;0.98;;;;;;;19.03;53.73;102238.47;5120657;28;20043;-81
2023/09/24 01:47:07;;;;;;;1.42;1.15;;;;;;;18.85;53.81;102205.94;5110919;28;20121;-81
2023/09/24 01:49:34;;;;;;;1.50;1.00;;;;;;;18.95;53.83;102220.31;5117799;28;20095;-81
2023/09/24 01:51:59;;;;;;;1.50;1.08;;;;;;;19.12;54.04;102252.00;5107594;28;20033;-81
2023/09/24 01:54:25;;;;;;;1.17;0.98;;;;;;;19.12;53.73;102249.31;5113605;28;20036;-82
2023/09/24 01:56:50;;;;;;;1.75;1.25;;;;;;;18.94;53.62;102218.56;5107743;28;20059;-80
2023/09/24 01:59:16;;;;;;;2.20;1.30;;;;;;;18.94;54.03;102223.97;5115910;28;20036;-81
2023/09/24 02:01:44;;;;;;;2.05;1.40;;;;;;;19.10;53.71;102248.56;5109597;28;20023;-81
2023/09/24 02:04:10;;;;;;;1.15;1.00;;;;;;;19.08;53.75;102247.03;5119223;28;20107;-81
2023/09/24 02:06:35;;;;;;;2.67;1.50;;;;;;;19.04;53.84;102238.34;5113334;28;20069;-80
2023/09/24 02:09:01;;;;;;;1.48;1.13;;;;;;;19.09;53.85;102246.03;5114247;28;20048;-81
2023/09/24 02:11:27;;;;;;;1.10;1.00;;;;;;;18.96;53.90;102222.00;5118324;28;20034;-81
2023/09/24 02:13:53;;;;;;;1.23;1.08;;;;;;;18.86;53.82;102213.91;5117700;27;20030;-81
2023/09/24 02:16:19;;;;;;;1.83;1.30;;;;;;;19.07;53.90;102250.69;5112931;28;20020;-81
2023/09/24 02:18:44;;;;;;;2.22;1.20;;;;;;;18.77;53.80;102194.97;5109599;28;20038;-81
2023/09/24 02:21:17;;;;;;;2.42;1.52;;;;;;;18.83;53.58;102202.53;5107273;28;20036;-81
2023/09/24 02:23:43;;;;;;;1.90;1.08;;;;;;;19.06;53.90;102243.59;5095422;28;20522;-81
2023/09/24 02:26:08;;;;;;;1.15;1.05;;;;;;;19.00;53.79;102241.47;5115975;28;20023;-81
2023/09/24 02:28:40;;;;;;;2.08;1.02;;;;;;;18.93;53.71;102239.28;5103375;28;20030;-81
2023/09/24 02:31:06;;;;;;;2.88;1.30;;;;;;;18.79;53.81;102219.97;5109207;28;20023;-82
2023/09/24 02:33:31;;;;;;;1.58;1.35;;;;;;;18.89;53.66;102234.31;5090827;28;20020;-82
2023/09/24 02:35:57;;;;;;;1.42;1.08;;;;;;;18.78;53.80;102219.13;5110486;28;20092;-81
2023/09/24 02:38:24;;;;;;;1.10;1.00;;;;;;;18.93;53.49;102250.06;5108176;28;20054;-81
2023/09/24 02:40:50;;;;;;;1.60;1.40;;;;;;;18.65;53.95;102210.38;5108700;28;20020;-81
2023/09/24 02:43:15;;;;;;;1.90;1.30;;;;;;;18.69;53.82;102214.47;5110425;28;20031;-81
2023/09/24 02:45:40;;;;;;;1.00;0.90;;;;;;;18.83;53.72;102243.81;5110772;28;20027;-81
2023/09/24 02:48:06;;;;;;;1.77;1.20;;;;;;;18.88;54.01;102256.88;5108601;28;20445;-81
2023/09/24 02:50:31;;;;;;;1.63;1.42;;;;;;;18.84;53.62;102248.19;5112001;28;20023;-81
2023/09/24 02:52:58;;;;;;;1.35;1.20;;;;;;;18.79;53.66;102236.13;5116853;28;20024;-81
2023/09/24 02:55:25;;;;;;;1.42;1.30;;;;;;;18.85;53.77;102249.88;5108781;28;20031;-81
2023/09/24 02:57:51;;;;;;;2.60;1.40;;;;;;;18.94;54.03;102267.09;5111852;28;20420;-81
2023/09/24 03:00:26;;;;;;;1.88;1.30;;;;;;;18.97;54.02;102272.22;5111218;28;20434;-81
2023/09/24 03:02:57;;;;;;;2.70;1.30;;;;;;;18.97;53.67;102266.81;5113187;28;20027;-81
2023/09/24 03:05:31;;;;;;;4.53;1.60;;;;;;;18.96;53.58;102273.22;5114878;28;20028;-82
2023/09/24 03:07:59;;;;;;;2.78;1.52;;;;;;;18.86;53.94;102261.53;5112468;28;20097;-82
2023/09/24 03:10:25;;;;;;;1.73;1.40;;;;;;;18.95;53.92;102282.28;5109932;28;20078;-82
2023/09/24 03:12:50;;;;;;;1.38;1.10;;;;;;;18.47;53.87;102204.75;5114483;28;20016;-81
2023/09/24 03:15:16;;;;;;;1.25;1.13;;;;;;;18.94;53.71;102294.88;5105167;28;20401;-82
2023/09/24 03:17:43;;;;;;;1.27;1.17;;;;;;;18.87;53.46;102279.41;5112209;28;20049;-81
2023/09/24 03:20:17;;;;;;;2.63;1.27;;;;;;;18.92;54.00;102286.09;5106246;28;20034;-81
2023/09/24 03:22:46;;;;;;;1.42;1.30;;;;;;;18.86;53.64;102277.69;5107103;28;20526;-82
2023/09/24 03:25:12;;;;;;;;;;;;;;;18.92;53.68;102294.19;5115703;28;20080;-80
2023/09/24 03:27:39;;;;;;;3.42;1.40;;;;;;;18.90;53.39;102296.19;5105570;28;20318;-81
2023/09/24 03:30:14;;;;;;;2.22;1.30;;;;;;;18.90;53.59;102298.00;5103921;28;20031;-81
2023/09/24 03:32:40;;;;;;;2.13;1.23;;;;;;;18.89;53.94;102299.84;5116536;28;20091;-82
2023/09/24 03:35:09;;;;;;;1.95;1.40;;;;;;;18.78;53.83;102285.63;5113586;28;20032;-82
2023/09/24 03:37:40;;;;;;;2.17;1.23;;;;;;;18.70;53.72;102286.28;5108664;28;20034;-81
2023/09/24 03:40:26;;;;;;;2.13;1.42;;;;;;;18.80;53.54;102297.97;5120708;28;20079;-81
2023/09/24 03:42:52;;;;;;;2.70;1.30;;;;;;;18.52;53.54;102252.81;5111133;28;20035;-82
2023/09/24 03:45:19;;;;;;;2.13;1.40;;;;;;;18.86;53.85;102310.03;5112287;28;20028;-81
2023/09/24 03:47:45;;;;;;;1.77;1.60;;;;;;;18.85;53.89;102314.56;5120825;28;20484;-81
2023/09/24 03:50:17;;;;;;;2.50;1.70;;;;;;;18.39;53.60;102240.44;5104386;28;20028;-81
2023/09/24 03:52:52;;;;;;;1.50;1.30;;;;;;;18.55;53.54;102261.50;5115163;28;20731;-81
2023/09/24 03:55:19;;;;;;;1.77;1.40;;;;;;;18.85;53.84;102319.09;5118094;28;20028;-81
2023/09/24 03:57:44;;;;;;;2.10;1.60;;;;;;;18.84;53.82;102314.72;5103986;28;20015;-80
2023/09/24 04:00:15;;;;;;;2.08;1.20;;;;;;;18.69;53.83;102301.59;5116998;28;20031;-82
2023/09/24 04:02:41;;;;;;;2.65;1.38;;;;;;;18.78;53.54;102316.13;5112967;28;20089;-82
2023/09/24 04:05:14;;;;;;;1.90;1.30;;;;;;;18.82;53.93;102322.94;5105403;28;20513;-83
2023/09/24 04:07:40;;;;;;;2.08;1.77;;;;;;;18.82;53.88;102319.38;5114523;28;20057;-82
2023/09/24 04:10:06;;;;;;;2.13;1.45;;;;;;;18.83;53.50;102321.09;5112128;28;20043;-82
2023/09/24 04:12:34;;;;;;;2.25;1.40;;;;;;;18.77;53.94;102308.16;5106424;28;20039;-82
2023/09/24 04:15:03;;;;;;;2.58;1.65;;;;;;;18.65;53.57;102299.28;5116845;28;20042;-82
2023/09/24 04:17:29;;;;;;;;;;;;;;;18.80;53.63;102322.22;5111040;28;20027;-82
2023/09/24 04:19:54;;;;;;;2.13;1.40;;;;;;;18.46;53.26;102271.22;5110642;28;20163;-81
2023/09/24 04:22:19;;;;;;;2.42;1.65;;;;;;;18.78;53.49;102324.19;5115663;28;20015;-81
2023/09/24 04:24:45;;;;;;;2.75;1.77;;;;;;;18.69;53.54;102324.94;5103539;28;20016;-81
2023/09/24 04:27:10;;;;;;;2.08;1.30;;;;;;;18.55;53.53;102303.75;5110522;28;20032;-79
2023/09/24 04:29:39;;;;;;;2.38;1.60;;;;;;;18.53;53.67;102297.63;5096376;28;20020;-82
2023/09/24 04:32:05;;;;;;;1.85;1.42;;;;;;;18.49;53.75;102292.50;5123368;28;20089;-82
2023/09/24 04:34:30;;;;;;;2.67;1.45;;;;;;;18.42;53.68;102285.09;5110723;28;20377;-82
2023/09/24 04:36:55;;;;;;;2.80;1.60;;;;;;;18.44;53.73;102289.38;5104312;28;20067;-82
2023/09/24 04:39:22;;;;;;;4.15;2.53;;;;;;;18.46;53.61;102297.31;5106822;28;20027;-82
2023/09/24 04:41:48;;;;;;;2.03;1.40;;;;;;;18.61;53.80;102319.38;5108914;28;20030;-81
2023/09/24 04:44:13;;;;;;;1.95;1.60;;;;;;;18.75;53.51;102347.84;5106393;28;20033;-81
2023/09/24 04:46:39;;;;;;;2.10;1.83;;;;;;;18.53;53.57;102319.19;5104196;28;20044;-81
2023/09/24 04:49:08;;;;;;;1.98;1.70;;;;;;;18.65;53.70;102342.38;5108144;28;20056;-80
2023/09/24 04:51:34;;;;;;;2.53;2.03;;;;;;;18.61;53.39;102331.00;5106690;28;20056;-82
2023/09/24 04:54:00;;;;;;;4.30;2.30;;;;;;;18.64;53.45;102346.88;5108185;28;20088;-82
2023/09/24 04:56:26;;;;;;;2.72;1.50;;;;;;;18.59;53.62;102337.50;5107315;28;20059;-82
2023/09/24 04:58:52;;;;;;;2.22;1.60;;;;;;;18.71;53.57;102356.19;5106966;28;20050;-81
2023/09/24 05:01:17;;;;;;;2.00;1.50;;;;;;;18.24;53.53;102285.69;5108889;28;20087;-82
2023/09/24 05:03:42;;;;;;;2.50;1.65;;;;;;;18.42;53.48;102314.72;5107927;28;20027;-82
2023/09/24 05:06:07;;;;;;;2.25;1.60;;;;;;;18.30;53.29;102294.22;5105579;28;20050;-82
2023/09/24 05:08:33;;;;;;;1.98;1.60;;;;;;;18.45;53.42;102320.69;5094749;28;20050;-81
2023/09/24 05:10:59;;;;;;;3.30;1.50;;;;;;;18.21;53.19;102279.69;5109053;28;20043;-81
2023/09/24 05:13:24;;;;;;;1.83;1.65;;;;;;;18.26;53.27;102287.38;5117263;28;20028;-82
2023/09/24 05:15:54;;;;;;;1.80;1.50;;;;;;;18.67;53.30;102357.41;5117311;28;20039;-82
2023/09/24 05:18:26;;;;;;;2.03;1.83;;;;;;;18.15;53.39;102277.53;5110167;28;20020;-82
2023/09/24 05:20:51;;;;;;;3.30;1.65;;;;;;;18.11;53.16;102268.03;5107927;28;20094;-81
2023/09/24 05:23:17;;;;;;;3.15;1.67;;;;;;;18.24;53.37;102296.44;5111106;28;20032;-82
2023/09/24 05:25:42;;;;;;;2.05;1.35;;;;;;;18.20;53.22;102289.63;5108918;28;20075;-82
2023/09/24 05:28:08;;;;;;;2.50;2.30;;;;;;;18.60;53.50;102369.69;5093594;28;20097;-82
2023/09/24 05:30:35;;;;;;;2.22;1.50;;;;;;;17.72;53.27;102214.72;5096031;28;20024;-83
2023/09/24 05:33:01;;;;;;;1.88;1.52;;;;;;;18.16;53.46;102306.16;5096326;28;20054;-82
2023/09/24 05:35:27;;;;;;;3.50;2.05;;;;;;;18.18;53.62;102323.03;5101203;28;20036;-82
2023/09/24 05:37:53;;;;;;;2.10;1.42;;;;;;;18.47;53.54;102371.72;5103426;28;20038;-82
2023/09/24 05:40:24;;;;;;;2.45;1.42;;;;;;;18.29;53.38;102331.06;5102232;28;20451;-82
2023/09/24 05:42:50;;;;;;;2.25;1.70;;;;;;;18.15;53.46;102310.69;5095590;28;20361;-82
2023/09/24 05:45:16;;;;;;;2.72;1.80;;;;;;;18.60;53.61;102399.31;5103235;28;20024;-82
2023/09/24 05:47:42;;;;;;;1.42;1.30;;;;;;;18.60;53.45;102396.63;5101295;28;20031;-82
2023/09/24 05:50:08;;;;;;;3.13;1.70;;;;;;;18.18;53.21;102328.41;5103482;28;20039;-82
2023/09/24 05:52:35;;;;;;;4.30;1.75;;;;;;;17.89;53.45;102287.81;5106177;28;20032;-81
2023/09/24 05:55:01;;;;;;;2.05;1.63;;;;;;;18.31;53.09;102360.53;5094045;28;20034;-82
2023/09/24 05:57:28;;;;;;;1.90;1.67;;;;;;;18.19;53.35;102338.22;5101690;28;20032;-82
2023/09/24 05:59:54;;;;;;;2.33;1.70;;;;;;;18.52;53.52;102403.66;5112323;28;20052;-81
2023/09/24 06:02:26;;;;;;;2.72;1.60;;;;;;;18.58;53.50;102406.69;5114454;28;20095;-81
2023/09/24 06:04:55;;;;;;;3.30;2.10;;;;;;;18.50;53.47;102403.78;5117902;28;20088;-81
2023/09/24 06:07:21;;;;;;;;;;;;;;;18.57;53.28;102407.69;5105888;28;20020;-81
2023/09/24 06:09:47;;;;;;;2.65;1.90;;;;;;;18.17;53.10;102334.78;5119729;28;19912;-81
2023/09/24 06:12:14;;;;;;;1.90;1.50;;;;;;;18.56;53.53;102423.94;5115934;28;20028;-82
2023/09/24 06:14:40;;;;;;;2.15;1.83;;;;;;;18.24;53.27;102360.22;5107871;28;20020;-82
2023/09/24 06:17:06;;;;;;;2.45;1.48;;;;;;;18.21;53.32;102358.63;5107103;28;20024;-81
2023/09/24 06:19:32;;;;;;;2.20;1.50;;;;;;;18.15;53.21;102361.00;5099919;28;20024;-81
2023/09/24 06:21:58;;;;;;;1.88;1.50;;;;;;;18.47;53.08;102421.03;5105023;28;20910;-81
2023/09/24 06:24:24;;;;;;;5.43;2.00;;;;;;;18.23;53.40;102382.75;5106538;28;20016;-81
2023/09/24 06:26:50;;;;;;;2.25;1.83;;;;;;;18.54;53.11;102434.00;5096432;28;20087;-81
2023/09/24 06:29:27;;;;;;;1.55;1.45;;;;;;;17.62;52.93;102282.84;5106014;28;20048;-81
2023/09/24 06:31:53;;;;;;;2.00;1.65;;;;;;;18.36;53.29;102421.13;5106769;28;20035;-82
2023/09/24 06:34:20;;;;;;;2.53;1.60;;;;;;;18.54;53.44;102442.09;5105391;28;20024;-81
2023/09/24 06:36:46;;;;;;;1.63;1.50;;;;;;;17.80;53.57;102319.03;5103094;28;20027;-81
2023/09/24 06:39:14;;;;;;;2.45;1.80;;;;;;;18.34;53.39;102423.06;5099132;28;20019;-81
2023/09/24 06:41:46;;;;;;;2.28;1.90;;;;;;;18.54;52.98;102461.81;5104770;28;20019;-81
2023/09/24 06:44:14;;;;;;;1.65;1.50;;;;;;;18.46;53.26;102446.28;5096439;28;20020;-81
2023/09/24 06:46:41;;;;;;;2.90;1.98;;;;;;;18.19;53.33;102395.59;5097346;28;20020;-81
2023/09/24 06:49:07;;;;;;;1.65;1.35;;;;;;;18.54;53.14;102460.94;5088855;28;20092;-81
2023/09/24 06:51:33;;;;;;;2.72;1.73;;;;;;;18.32;53.49;102434.97;5094840;28;20027;-81
2023/09/24 06:53:59;;;;;;;7.68;2.08;;;;;;;18.55;53.34;102478.81;5103957;28;20049;-81
2023/09/24 06:56:26;;;;;;;2.15;1.67;;;;;;;18.55;53.41;102476.13;5088597;28;20070;-81
2023/09/24 06:58:52;;;;;;;2.03;1.60;;;;;;;18.43;53.45;102460.00;5103508;28;20039;-81
2023/09/24 07:01:19;;;;;;;2.40;1.83;;;;;;;18.51;53.22;102455.81;5097478;28;20032;-81
2023/09/24 07:03:47;;;;;;;1.77;1.60;;;;;;;18.24;53.28;102420.28;5099537;28;20028;-81
2023/09/24 07:06:15;;;;;;;2.25;1.70;;;;;;;18.56;53.57;102475.13;5100708;28;20058;-81
2023/09/24 07:08:41;;;;;;;1.52;1.35;;;;;;;18.51;53.20;102467.44;5100141;28;20063;-81
2023/09/24 07:11:28;;;;;;;2.00;1.65;;;;;;;18.54;53.30;102469.88;5101203;28;20462;-81
2023/09/24 07:13:54;;;;;;;2.03;1.50;;;;;;;18.55;53.37;102473.44;5099901;27;20067;-81
2023/09/24 07:16:24;;;;;;;2.85;1.60;;;;;;;18.55;53.39;102478.81;5096897;28;20091;-81
2023/09/24 07:18:51;;;;;;;1.60;1.50;;;;;;;18.54;53.23;102477.97;5108242;28;20024;-81
2023/09/24 07:21:18;;;;;;;1.88;1.48;;;;;;;18.54;53.56;102485.19;5100763;28;20049;-81
2023/09/24 07:23:44;;;;;;;2.20;1.70;;;;;;;17.91;53.26;102366.56;5097305;28;20039;-81
2023/09/24 07:26:16;;;;;;;1.73;1.50;;;;;;;18.28;53.19;102425.44;5097749;28;20019;-81
2023/09/24 07:28:43;;;;;;;2.72;1.60;;;;;;;18.55;53.08;102497.66;5108824;28;20028;-82
2023/09/24 07:31:13;;;;;;;2.17;1.70;;;;;;;17.91;53.40;102371.94;5090505;28;20099;-81
2023/09/24 07:33:42;;;;;;;2.05;1.50;;;;;;;18.15;53.49;102418.38;5103360;28;20024;-81
2023/09/24 07:36:08;;;;;;;2.35;1.60;;;;;;;17.95;53.10;102376.94;5092796;28;20028;-82
2023/09/24 07:38:34;;;;;;;1.85;1.38;;;;;;;18.56;53.55;102477.81;5104093;28;20458;-81
2023/09/24 07:41:00;;;;;;;1.80;1.60;;;;;;;18.55;53.39;102487.75;5103652;28;20064;-81
2023/09/24 07:43:26;;;;;;;3.22;1.88;;;;;;;18.21;53.21;102422.38;5105489;28;20031;-81
2023/09/24 07:45:52;;;;;;;1.90;1.70;;;;;;;17.66;53.45;102333.56;5095528;28;20096;-81
2023/09/24 07:48:19;;;;;;;2.33;1.52;;;;;;;18.56;53.32;102488.59;5095313;28;20139;-81
2023/09/24 07:50:54;;;;;;;1.80;1.70;;;;;;;17.97;53.44;102393.84;5098539;28;20024;-81
2023/09/24 07:53:24;;;;;;;1.88;1.20;;;;;;;18.02;53.45;102398.84;5105027;28;20027;-81
2023/09/24 07:55:56;;;;;;;2.10;1.45;;;;;;;18.01;53.39;102401.63;5104948;28;20556;-81
2023/09/24 07:58:23;;;;;;;1.50;1.40;;;;;;;18.56;53.58;102505.63;5111974;28;20027;-81
2023/09/24 08:00:49;;;;;;;1.92;1.52;;;;;;;18.41;53.28;102477.28;5098833;28;20027;-81
2023/09/24 08:03:16;;;;;;;1.92;1.50;;;;;;;17.70;53.36;102361.06;5097621;28;20125;-81
2023/09/24 08:05:42;;;;;;;2.15;1.88;;;;;;;18.10;53.39;102427.81;5106289;28;20036;-81
2023/09/24 08:08:08;;;;;;;1.70;1.60;;;;;;;18.03;53.65;102426.59;5097010;28;20063;-81
2023/09/24 08:10:35;;;;;;;3.20;1.65;;;;;;;18.58;53.33;102514.44;5109162;28;20465;-81
2023/09/24 08:13:03;;;;;;;1.65;1.55;;;;;;;18.58;53.36;102513.59;5105243;28;20028;-81
2023/09/24 08:15:29;;;;;;;1.63;1.40;;;;;;;17.86;53.29;102401.91;5104211;28;20032;-82
2023/09/24 08:17:56;;;;;;;2.00;1.80;;;;;;;18.52;53.60;102514.06;5102964;28;20024;-81
2023/09/24 08:20:22;;;;;;;3.00;1.52;;;;;;;17.99;53.61;102416.06;5105314;28;20082;-81
2023/09/24 08:22:48;;;;;;;2.30;1.75;;;;;;;18.53;53.72;102511.28;5095818;28;20024;-81
2023/09/24 08:25:14;;;;;;;1.60;1.50;;;;;;;18.38;53.50;102480.22;5102592;28;20020;-82
2023/09/24 08:27:41;;;;;;;1.98;1.40;;;;;;;17.70;53.70;102369.13;5104785;28;20063;-82
2023/09/24 08:30:07;;;;;;;1.70;1.50;;;;;;;18.22;53.76;102459.97;5105038;28;20023;-82
2023/09/24 08:32:33;;;;;;;2.20;1.63;;;;;;;18.32;53.66;102478.91;5102203;28;20111;-82
2023/09/24 08:34:59;;;;;;;2.05;1.48;;;;;;;17.87;53.51;102405.47;5103613;28;20028;-82
2023/09/24 08:37:25;;;;;;;2.65;1.50;;;;;;;18.63;53.68;102536.47;5103691;28;20028;-82
2023/09/24 08:39:52;;;;;;;2.30;1.60;;;;;;;18.62;53.61;102533.91;5102681;28;20046;-81
2023/09/24 08:42:20;;;;;;;1.98;1.38;;;;;;;18.55;53.77;102528.16;5104549;28;20028;-81
2023/09/24 08:45:09;;;;;;;2.00;1.50;;;;;;;18.18;53.43;102452.22;5102764;28;20658;-81
2023/09/24 08:47:35;;;;;;;1.52;1.42;;;;;;;18.19;53.27;102453.97;5094466;28;20031;-81
2023/09/24 08:50:03;;;;;;;1.77;1.50;;;;;;;18.58;53.80;102530.59;5096887;28;20096;-81
2023/09/24 08:52:32;;;;;;;1.40;1.30;;;;;;;18.60;53.43;102519.69;5089886;28;20031;-81
2023/09/24 08:54:59;;;;;;;1.35;1.25;;;;;;;18.67;53.47;102531.66;5102028;28;20032;-81
2023/09/24 08:57:25;;;;;;;2.00;1.42;;;;;;;18.32;53.48;102470.81;5101280;28;20024;-81
2023/09/24 08:59:51;;;;;;;2.90;1.50;;;;;;;18.67;53.55;102529.84;5095233;28;20020;-81
2023/09/24 09:02:18;;;;;;;2.17;1.45;;;;;;;18.35;53.32;102472.38;5090863;28;20031;-81
2023/09/24 09:04:51;;;;;;;2.00;1.70;;;;;;;18.41;53.49;102482.66;5093338;28;20036;-81
2023/09/24 09:07:17;;;;;;;1.90;1.30;;;;;;;18.37;53.67;102471.28;5109709;28;20048;-80
2023/09/24 09:09:57;;;;;;;2.10;1.50;;;;;;;18.64;53.90;102515.75;5103987;28;20044;-81
2023/09/24 09:12:24;;;;;;;2.88;1.90;;;;;;;18.65;53.45;102514.78;5099805;28;20027;-81
2023/09/24 09:14:50;;;;;;;1.70;1.27;;;;;;;18.68;53.77;102519.91;5107306;28;20058;-81
2023/09/24 09:17:17;;;;;;;1.60;1.20;;;;;;;18.42;53.48;102463.66;5093490;28;20027;-81
2023/09/24 09:19:57;;;;;;;1.92;1.20;;;;;;;18.20;53.49;102426.91;5090933;28;20063;-81
2023/09/24 09:22:27;;;;;;;1.15;1.05;;;;;;;18.68;53.53;102501.91;5102466;28;20121;-81
2023/09/24 09:25:08;;;;;;;1.33;1.13;;;;;;;18.77;53.50;102516.47;5096485;28;20028;-81
2023/09/24 09:27:37;;;;;;;1.50;1.10;;;;;;;18.78;53.54;102531.69;5099653;28;20078;-81
2023/09/24 09:30:20;;;;;;;1.05;0.90;;;;;;;18.47;53.47;102464.13;5107445;28;20058;-82
2023/09/24 09:32:47;;;;;;;2.63;1.63;;;;;;;18.78;53.69;102502.03;5105061;28;20028;-81
2023/09/24 09:35:15;;;;;;;1.40;1.25;;;;;;;18.79;53.52;102517.22;5102735;28;20032;-81
2023/09/24 09:37:42;;;;;;;1.40;1.30;;;;;;;18.10;53.50;102385.59;5106486;28;20028;-81
2023/09/24 09:40:09;;;;;;;2.25;1.40;;;;;;;18.81;53.47;102517.06;5102677;28;20027;-81
2023/09/24 09:42:37;;;;;;;2.08;1.25;;;;;;;18.67;53.76;102470.56;5098498;28;20054;-80
2023/09/24 09:45:07;;;;;;;1.67;1.37;;;;;;;18.39;53.73;102437.03;5102488;28;20016;-81
2023/09/24 09:48:04;;;;;;;1.38;1.20;;;;;;;18.82;53.70;102491.81;5105081;28;20305;-81
2023/09/24 09:50:40;;;;;;;1.70;1.30;;;;;;;18.61;53.54;102451.38;5095574;28;20138;-81
2023/09/24 09:53:09;;;;;;;2.78;1.70;;;;;;;18.38;53.78;102408.34;5104450;28;20024;-81
2023/09/24 09:55:42;;;;;;;1.20;1.10;;;;;;;18.85;53.59;102487.03;5106982;28;20024;-82
2023/09/24 09:58:10;;;;;;;1.40;1.30;;;;;;;18.40;53.77;102409.09;5105999;28;20016;-81
2023/09/24 10:00:36;;;;;;;1.45;1.30;;;;;;;18.10;53.86;102353.31;5113148;28;20492;-81
2023/09/24 10:03:04;;;;;;;1.52;1.30;;;;;;;18.89;53.83;102493.03;5100597;28;20028;-81
2023/09/24 10:05:31;;;;;;;1.73;1.20;;;;;;;18.89;53.48;102469.63;5104834;28;20087;-81
2023/09/24 10:07:57;;;;;;;1.50;1.00;;;;;;;18.23;53.54;102353.13;5107317;28;20024;-81
2023/09/24 10:10:32;;;;;;;2.22;1.30;;;;;;;18.33;53.70;102364.81;5101462;28;20052;-81
2023/09/24 10:12:59;;;;;;;1.67;1.10;;;;;;;18.75;53.31;102442.16;5122760;28;20039;-81
2023/09/24 10:15:30;;;;;;;1.67;1.58;;;;;;;18.94;53.53;102466.53;5099844;28;20020;-82
2023/09/24 10:18:25;;;;;;;1.20;1.10;;;;;;;18.82;53.72;102433.44;5101039;28;20407;-81
2023/09/24 10:20:55;;;;;;;1.58;1.25;;;;;;;18.95;53.59;102461.03;5088065;28;20061;-81
2023/09/24 10:23:34;;;;;;;2.15;1.20;;;;;;;18.92;53.46;102453.19;5114944;28;20388;-81
2023/09/24 10:26:03;;;;;;;1.33;1.05;;;;;;;18.86;53.59;102426.78;5121573;28;20884;-82
2023/09/24 10:28:47;;;;;;;1.95;1.10;;;;;;;18.99;53.63;102461.63;5103958;28;20024;-82
2023/09/24 10:31:14;;;;;;;1.88;1.20;;;;;;;18.90;53.47;102439.00;5121674;28;20032;-82
2023/09/24 10:33:56;;;;;;;1.58;1.08;;;;;;;18.57;53.56;102398.75;5097562;28;20028;-82
2023/09/24 10:36:28;;;;;;;3.03;1.40;;;;;;;18.29;53.87;102343.66;5110456;28;20039;-82
2023/09/24 10:39:03;;;;;;;1.38;1.10;;;;;;;18.93;53.89;102454.91;5105707;28;20034;-81
2023/09/24 10:41:29;;;;;;;1.20;0.93;;;;;;;18.28;53.96;102337.44;5122788;28;20027;-81
2023/09/24 10:44:20;;;;;;;1.77;1.40;;;;;;;19.02;53.90;102458.66;5105220;28;20019;-81
2023/09/24 10:46:46;;;;;;;1.05;0.88;;;;;;;19.04;53.62;102455.84;5115161;28;20027;-81
2023/09/24 10:49:18;;;;;;;1.35;1.15;;;;;;;18.73;53.91;102410.81;5094887;28;20024;-81
2023/09/24 10:51:44;;;;;;;1.30;1.13;;;;;;;18.55;53.90;102371.91;5097097;28;20020;-81
2023/09/24 10:54:14;;;;;;;1.27;1.02;;;;;;;18.93;53.60;102441.44;5106937;28;20024;-81
2023/09/24 10:56:45;;;;;;;1.23;0.98;;;;;;;18.52;53.66;102361.44;5092045;28;20028;-81
2023/09/24 10:59:11;;;;;;;1.20;1.10;;;;;;;18.63;53.63;102368.59;5105785;28;20023;-81
2023/09/24 11:01:37;;;;;;;1.40;1.17;;;;;;;18.86;54.02;102401.66;5095514;28;20505;-82
2023/09/24 11:04:03;;;;;;;1.70;1.10;;;;;;;18.78;53.92;102386.16;5102650;28;20046;-82
2023/09/24 11:06:31;;;;;;;1.10;1.00;;;;;;;18.98;53.78;102409.53;5103005;28;20125;-82
2023/09/24 11:09:18;;;;;;;1.05;0.90;;;;;;;18.66;54.00;102355.72;5103243;28;20048;-81
2023/09/24 11:11:44;;;;;;;2.13;1.38;;;;;;;18.91;53.80;102396.75;5104851;28;20161;-82
2023/09/24 11:14:13;;;;;;;1.40;1.10;;;;;;;18.69;53.87;102371.66;5110651;27;20027;-82
2023/09/24 11:16:39;;;;;;;1.00;0.90;;;;;;;19.12;53.73;102435.31;5116918;28;20020;-82
2023/09/24 11:19:06;;;;;;;2.15;1.20;;;;;;;19.14;53.91;102435.19;5103265;28;20038;-82
2023/09/24 11:21:32;;;;;;;1.45;0.98;;;;;;;19.01;53.90;102405.72;5103812;28;20032;-81
2023/09/24 11:23:58;;;;;;;1.52;0.98;;;;;;;19.23;53.70;102455.94;5102914;28;20043;-82
2023/09/24 11:26:37;;;;;;;1.83;1.08;;;;;;;19.19;53.93;102438.31;5097497;28;20069;-82
2023/09/24 11:29:08;;;;;;;;;;;;;;;19.27;53.86;102445.75;5106563;28;20028;-83
2023/09/24 11:31:37;;;;;;;1.63;1.25;;;;;;;18.62;53.87;102330.03;5105156;28;19919;-83